Data for 04/09/2006

Time Sea-Level Adjusted Pressure Absolute Pressure Temperature Relative Humidity Dew Point   
(mb) (inHg) (mb) (inHg) (C) (F) (%) (C) (F)
00:05 1015 29.97 844 24.92 6.9 44.4 74 2.5 36.5
00:10 1015 29.97 844 24.92 6.6 43.8 75 2.5 36.5
00:15 1015 29.97 844 24.92 6.5 43.6 76 2.5 36.5
00:20 1015 29.97 844 24.92 6.5 43.7 75 2.3 36.2
00:25 1015 29.97 844 24.92 6.6 43.8 74 2.2 36
00:30 1015 29.97 844 24.92 6.6 43.8 74 2.2 36
00:35 1015 29.97 844 24.92 6.8 44.2 72 2.1 35.7
00:40 1015 29.97 844 24.92 6.8 44.3 71 2 35.6
00:45 1015 29.97 844 24.92 6.9 44.5 71 2.1 35.7
00:50 1015 29.97 844 24.92 6.9 44.5 71 2.1 35.8
00:55 1015 29.97 844 24.92 6.9 44.5 73 2.5 36.4
01:00 1015 29.97 844 24.92 6.8 44.3 74 2.5 36.5
01:05 1015 29.97 844 24.92 6.8 44.3 74 2.6 36.6
01:10 1015 29.97 844 24.92 6.7 44.1 75 2.7 36.8
01:15 1015 29.97 844 24.92 6.7 44.1 75 2.6 36.7
01:20 1015 29.97 844 24.92 6.8 44.2 75 2.8 37
01:25 1015 29.97 844 24.92 6.4 43.5 80 3.2 37.8
01:30 1015 29.97 844 24.92 6.1 42.9 80 2.9 37.2
01:35 1015 29.97 844 24.92 6.4 43.6 79 3.1 37.6
01:40 1015 29.97 844 24.92 6.5 43.7 79 3.1 37.7
01:45 1014 29.94 844 24.92 6.5 43.7 79 3.1 37.5
01:50 1015 29.97 844 24.92 6.5 43.7 78 2.9 37.3
01:55 1015 29.97 844 24.92 6.4 43.5 78 2.8 37
02:00 1015 29.97 844 24.92 6.2 43.2 79 2.8 37.1
02:05 1015 29.97 844 24.92 5.9 42.5 83 3.2 37.8
02:10 1015 29.97 844 24.92 5.4 41.8 83 2.8 37
02:15 1015 29.97 844 24.92 5.5 41.8 82 2.6 36.7
02:20 1015 29.97 844 24.92 5.5 41.9 80 2.3 36.1
02:25 1015 29.97 844 24.92 5.5 42 80 2.4 36.3
02:30 1015 29.97 844 24.92 5.6 42.1 79 2.3 36.1
02:35 1015 29.97 844 24.92 5.6 42.1 79 2.3 36.2
02:40 1015 29.97 844 24.92 5.8 42.5 77 2.1 35.8
02:45 1015 29.97 844 24.92 6 42.8 78 2.4 36.3
02:50 1015 29.97 844 24.92 5.8 42.4 77 2.1 35.7
02:55 1015 29.97 844 24.92 5.8 42.4 73 1.2 34.2
03:00 1015 29.97 844 24.92 5.7 42.3 72 1.1 34
03:05 1015 29.97 844 24.92 5.8 42.4 69 0.6 33.1
03:10 1015 29.97 844 24.92 6 42.8 69 0.7 33.2
03:15 1015 29.97 844 24.92 6.1 42.9 67 0.5 32.9
03:20 1015 29.97 844 24.92 6 42.9 68 0.6 33.1
03:25 1015 29.97 844 24.92 6.1 43 68 0.6 33.2
03:30 1015 29.97 844 24.92 6.2 43.1 68 0.8 33.4
03:35 1015 29.97 844 24.92 6.1 43.1 68 0.6 33.1
03:40 1015 29.97 844 24.92 6.2 43.1 66 0.2 32.4
03:45 1015 29.97 844 24.92 6.1 43 66 0.3 32.5
03:50 1015 29.97 844 24.92 6 42.8 68 0.5 32.9
03:55 1015 29.97 844 24.92 5.8 42.5 71 1 33.8
04:00 1015 29.97 844 24.92 5.9 42.6 72 1.3 34.3
04:05 1015 29.97 844 24.92 5.9 42.7 72 1.2 34.1
04:10 1015 29.97 844 24.92 5.6 42.1 73 1.2 34.2
04:15 1015 29.97 844 24.92 5.6 42.1 74 1.3 34.3
04:20 1015 29.97 844 24.92 5.6 42 74 1.3 34.3
04:25 1015 29.97 844 24.92 5.7 42.2 72 1.1 34
04:30 1015 29.97 844 24.92 5.8 42.4 73 1.2 34.2
04:35 1015 29.97 844 24.92 5.7 42.3 73 1.2 34.2
04:40 1015 29.97 844 24.92 5.6 42.1 73 1.2 34.2
04:45 1015 29.97 844 24.92 5.6 42 74 1.3 34.3
04:50 1015 29.97 844 24.92 5.4 41.7 75 1.4 34.5
04:55 1015 29.97 844 24.92 5.4 41.8 73 0.9 33.7
05:00 1015 29.97 844 24.92 5.4 41.8 75 1.3 34.3
05:05 1015 29.97 844 24.92 5.3 41.6 75 1.2 34.2
05:10 1015 29.97 844 24.92 5.4 41.7 74 1.2 34.1
05:15 1015 29.97 844 24.92 5.5 41.9 74 1.3 34.3
05:20 1015 29.97 844 24.92 5.4 41.6 76 1.5 34.7
05:25 1015 29.97 844 24.92 5.1 41.2 77 1.4 34.4
05:30 1015 29.97 844 24.92 5 41.1 73 0.6 33.1
05:35 1015 29.97 844 24.92 5.2 41.4 75 1.2 34.1
05:40 1015 29.97 844 24.92 4.9 40.7 67 -0.7 30.8
05:45 1015 29.97 844 24.92 4.5 40.1 65 -1.4 29.5
05:50 1015 29.97 844 24.92 4.4 39.9 67 -1.2 29.8
05:55 1015 29.97 844 24.92 4.6 40.4 68 -0.8 30.6
06:00 1015 29.97 844 24.92 4.9 40.8 64 -1.4 29.5
06:05 1015 29.97 844 24.92 4.9 40.8 59 -2.4 27.6
06:10 1015 29.97 844 24.92 4.8 40.7 58 -2.8 26.9
06:15 1015 29.97 844 24.92 4.8 40.7 58 -2.7 27.1
06:20 1015 29.97 844 24.92 4.9 40.8 58 -2.7 27.1
06:25 1015 29.97 844 24.92 4.9 40.9 57 -2.9 26.7
06:30 1015 29.97 845 24.95 4.8 40.7 55 -3.3 26
06:35 1015 29.97 845 24.95 4.8 40.6 56 -3.2 26.3
06:40 1015 29.97 845 24.95 4.6 40.3 55 -3.6 25.5
06:45 1015 29.97 845 24.95 4.7 40.5 52 -4.2 24.4
06:50 1015 29.97 845 24.95 4.9 40.8 51 -4.5 23.9
06:55 1015 29.97 845 24.95 5.1 41.2 48 -4.9 23.2
07:00 1015 29.97 845 24.95 5.1 41.2 49 -4.7 23.5
07:05 1015 29.97 845 24.95 5 41 54 -3.6 25.6
07:10 1016 30 845 24.95 4.7 40.5 55 -3.5 25.8
07:15 1016 30 845 24.95 4.6 40.3 54 -4 24.8
07:20 1016 30 845 24.95 4.7 40.5 52 -4.4 24.1
07:25 1016 30 845 24.95 4.7 40.5 50 -4.8 23.4
07:30 1016 30 845 24.95 4.8 40.7 50 -4.8 23.4
07:35 1016 30 845 24.95 4.9 40.8 50 -4.7 23.5
07:40 1016 30 845 24.95 4.9 40.8 50 -4.8 23.4
07:45 1015 29.97 845 24.95 4.9 40.9 51 -4.4 24.1
07:50 1015 29.97 845 24.95 5.1 41.2 48 -5 22.9
07:55 1016 30 845 24.95 5.2 41.4 48 -4.8 23.3
08:00 1016 30 845 24.95 5.3 41.6 48 -4.8 23.3
08:05 1016 30 845 24.95 5.4 41.7 49 -4.5 23.9
08:10 1016 30 845 24.95 5.5 41.9 47 -4.8 23.4
08:15 1016 30 845 24.95 5.6 42.2 48 -4.4 24
08:20 1016 30 845 24.95 5.7 42.2 48 -4.5 23.8
08:25 1016 30 845 24.95 5.8 42.5 52 -3.3 26.1
08:30 1016 30 845 24.95 6.2 43.2 51 -3.1 26.4
08:35 1016 30 845 24.95 6.6 43.8 49 -3.5 25.7
08:40 1016 30 845 24.95 6.8 44.3 48 -3.5 25.7
08:45 1016 30 845 24.95 7 44.6 49 -3 26.6
08:50 1016 30 845 24.95 7.4 45.2 49 -2.6 27.4
08:55 1016 30 845 24.95 7.5 45.6 48 -2.8 26.9
09:00 1016 30 845 24.95 7.4 45.3 49 -2.5 27.5
09:05 1016 30 845 24.95 7.8 46 48 -2.6 27.3
09:10 1016 30 845 24.95 8.2 46.8 45 -2.9 26.8
09:15 1016 30 845 24.95 8.2 46.7 39 -4.9 23.1
09:20 1015 29.97 845 24.95 8.4 47 33 -6.9 19.6
09:25 1015 29.97 845 24.95 7.9 46.1 36 -6.5 20.3
09:30 1015 29.97 845 24.95 8 46.3 35 -6.7 20
09:35 1015 29.97 845 24.95 8 46.3 35 -6.7 19.9
09:40 1015 29.97 845 24.95 8 46.4 34 -7.1 19.3
09:45 1015 29.97 844 24.92 8.3 46.9 32 -7.4 18.7
09:50 1015 29.97 844 24.92 8.3 47 31 -7.7 18.2
09:55 1015 29.97 844 24.92 8.4 47 31 -7.6 18.3
10:00 1015 29.97 844 24.92 8.7 47.6 31 -7.5 18.6
10:05 1015 29.97 844 24.92 8.8 47.8 31 -7.5 18.4
10:10 1015 29.97 844 24.92 8.8 47.9 30 -7.8 18
10:15 1015 29.97 844 24.92 9 48.2 30 -7.8 17.9
10:20 1015 29.97 844 24.92 9.1 48.4 29 -7.9 17.8
10:25 1015 29.97 844 24.92 9.1 48.4 30 -7.4 18.6
10:30 1015 29.97 844 24.92 9.3 48.7 29 -7.8 17.9
10:35 1015 29.97 844 24.92 9.5 49 30 -7.3 18.8
10:40 1015 29.97 844 24.92 9.6 49.3 29 -7.4 18.7
10:45 1015 29.97 844 24.92 9.8 49.6 29 -7.4 18.7
10:50 1015 29.97 844 24.92 9.5 49.2 30 -7.1 19.1
10:55 1015 29.97 844 24.92 9.6 49.3 30 -7.2 19
11:00 1015 29.97 844 24.92 10.1 50.2 29 -7.1 19.3
11:05 1015 29.97 844 24.92 10.3 50.5 29 -7.1 19.2
11:10 1015 29.97 844 24.92 10.4 50.7 28 -7.4 18.7
11:15 1015 29.97 844 24.92 10.3 50.5 29 -7 19.4
11:20 1015 29.97 844 24.92 10.9 51.6 27 -7.2 19
11:25 1015 29.97 844 24.92 11.1 52 27 -7.1 19.1
11:30 1015 29.97 844 24.92 11 51.9 28 -7 19.4
11:35 1014 29.94 844 24.92 11.1 52 28 -6.8 19.8
11:40 1014 29.94 844 24.92 11.1 51.9 28 -6.7 20
11:45 1014 29.94 844 24.92 10.9 51.6 29 -6.5 20.4
11:50 1014 29.94 843 24.89 11.2 52.1 29 -6.3 20.7
11:55 1014 29.94 843 24.89 10.8 51.4 29 -6.5 20.2
12:00 1014 29.94 843 24.89 11 51.9 28 -6.7 20
12:05 1014 29.94 843 24.89 11.1 51.9 28 -6.6 20.1
12:10 1014 29.94 843 24.89 11.2 52.2 29 -6.4 20.5
12:15 1014 29.94 843 24.89 11.4 52.6 28 -6.4 20.6
12:20 1014 29.94 843 24.89 11.9 53.4 27 -6.3 20.6
12:25 1014 29.94 843 24.89 11.6 52.9 28 -6.3 20.7
12:30 1014 29.94 843 24.89 11.7 53.1 29 -5.6 22
12:35 1014 29.94 843 24.89 12.1 53.8 28 -6 21.2
12:40 1014 29.94 843 24.89 12.2 53.9 28 -5.6 21.9
12:45 1014 29.94 843 24.89 12 53.5 28 -5.8 21.5
12:50 1014 29.94 843 24.89 11.7 53.1 29 -5.7 21.8
12:55 1013 29.91 843 24.89 11.9 53.4 29 -5.7 21.7
13:00 1013 29.91 843 24.89 12 53.6 29 -5.5 22.1
13:05 1013 29.91 843 24.89 11.9 53.4 29 -5.6 22
13:10 1013 29.91 842 24.86 12.5 54.5 28 -5.4 22.3
13:15 1013 29.91 842 24.86 12.5 54.4 29 -4.9 23.1
13:20 1013 29.91 842 24.86 13.1 55.5 28 -5 23
13:25 1013 29.91 842 24.86 12.9 55.2 28 -5 23.1
13:30 1013 29.91 842 24.86 12.7 54.8 29 -4.8 23.4
13:35 1013 29.91 842 24.86 12.5 54.5 29 -5.2 22.7
13:40 1013 29.91 842 24.86 12.8 55 28 -5.2 22.7
13:45 1013 29.91 842 24.86 12.7 54.9 28 -5 22.9
13:50 1013 29.91 842 24.86 12.9 55.3 29 -4.8 23.4
13:55 1013 29.91 842 24.86 13 55.4 28 -4.9 23.3
14:00 1013 29.91 842 24.86 13.3 55.9 27 -5.2 22.7
14:05 1013 29.91 842 24.86 13.4 56.2 26 -5.6 21.9
14:10 1013 29.91 842 24.86 13.9 57 26 -5.4 22.2
14:15 1013 29.91 842 24.86 14.3 57.7 27 -4.4 24.1
14:20 1012 29.88 842 24.86 14 57.1 27 -4.8 23.4
14:25 1012 29.88 842 24.86 14.4 57.8 24 -6.1 21
14:30 1012 29.88 842 24.86 14 57.2 25 -5.6 21.9
14:35 1012 29.88 842 24.86 14.1 57.4 24 -6 21.3
14:40 1012 29.88 841 24.83 14.3 57.7 24 -5.8 21.6
14:45 1012 29.88 841 24.83 14 57.3 25 -5.7 21.8
14:50 1012 29.88 841 24.83 13.8 56.8 24 -6.4 20.6
14:55 1012 29.88 841 24.83 13.8 56.8 24 -6.3 20.7
15:00 1012 29.88 841 24.83 14 57.1 25 -5.7 21.7
15:05 1012 29.88 841 24.83 14.1 57.5 25 -5.3 22.5
15:10 1012 29.88 841 24.83 14.1 57.5 25 -5.7 21.7
15:15 1012 29.88 841 24.83 14.1 57.3 25 -5.9 21.5
15:20 1012 29.88 841 24.83 13.8 56.8 24 -6.3 20.7
15:25 1012 29.88 841 24.83 14.1 57.4 25 -5.8 21.6
15:30 1012 29.88 841 24.83 14.2 57.5 24 -5.8 21.6
15:35 1012 29.88 841 24.83 14.1 57.4 24 -5.9 21.3
15:40 1012 29.88 841 24.83 14.2 57.6 24 -6 21.1
15:45 1012 29.88 841 24.83 14.4 57.9 24 -5.7 21.8
15:50 1012 29.88 841 24.83 14.3 57.7 24 -5.7 21.8
15:55 1012 29.88 841 24.83 14.1 57.5 24 -5.9 21.3
16:00 1012 29.88 841 24.83 14 57.1 24 -6.2 20.8
16:05 1011 29.85 841 24.83 14.2 57.6 24 -6.2 20.8
16:10 1011 29.85 841 24.83 14.3 57.7 24 -6.1 21
16:15 1011 29.85 840 24.81 14.3 57.7 23 -6.4 20.4
16:20 1011 29.85 840 24.81 14.2 57.6 23 -6.3 20.7
16:25 1011 29.85 840 24.81 14.3 57.8 24 -6.2 20.9
16:30 1011 29.85 840 24.81 13.8 56.9 24 -6.1 21
16:35 1011 29.85 840 24.81 13.6 56.5 25 -6.2 20.8
16:40 1011 29.85 840 24.81 13.7 56.6 25 -6.2 20.9
16:45 1011 29.85 840 24.81 13.9 57.1 24 -6.3 20.7
16:50 1011 29.85 840 24.81 13.9 57 24 -6.3 20.7
16:55 1011 29.85 840 24.81 13.9 57 24 -6.3 20.7
17:00 1011 29.85 840 24.81 13.7 56.6 24 -6.4 20.4
17:05 1011 29.85 840 24.81 13.5 56.4 25 -6.1 21.1
17:10 1011 29.85 840 24.81 13.5 56.2 25 -6.3 20.7
17:15 1011 29.85 840 24.81 14 57.2 24 -6.2 20.9
17:20 1011 29.85 840 24.81 14.1 57.4 24 -6.2 20.9
17:25 1011 29.85 840 24.81 13.7 56.7 25 -6.1 21
17:30 1011 29.85 840 24.81 13.4 56.1 25 -6 21.2
17:35 1011 29.85 840 24.81 13.4 56 25 -6.2 20.9
17:40 1011 29.85 840 24.81 13.3 56 25 -6 21.2
17:45 1011 29.85 840 24.81 13.2 55.8 26 -5.7 21.8
17:50 1011 29.85 840 24.81 13.2 55.8 26 -5.8 21.5
17:55 1011 29.85 840 24.81 13.3 55.9 26 -5.8 21.6
18:00 1011 29.85 840 24.81 13.3 56 26 -5.9 21.4
18:05 1011 29.85 840 24.81 13.1 55.5 26 -5.9 21.4
18:10 1011 29.85 840 24.81 12.8 55 26 -6.4 20.6
18:15 1011 29.85 840 24.81 12.7 54.9 27 -6 21.2
18:20 1011 29.85 840 24.81 12.7 54.9 27 -5.8 21.6
18:25 1011 29.85 840 24.81 12.7 54.8 27 -5.7 21.7
18:30 1011 29.85 840 24.81 12.7 54.9 26 -6.1 21
18:35 1011 29.85 840 24.81 12.6 54.6 26 -6.4 20.4
18:40 1011 29.85 840 24.81 12.5 54.5 26 -6.3 20.7
18:45 1011 29.85 840 24.81 12.4 54.4 27 -6.1 21
18:50 1011 29.85 840 24.81 12.4 54.2 27 -5.9 21.3
18:55 1011 29.85 840 24.81 12.3 54.1 28 -5.9 21.4
19:00 1011 29.85 840 24.81 12.1 53.8 28 -6.1 21.1
19:05 1011 29.85 840 24.81 12 53.6 28 -6 21.2
19:10 1011 29.85 840 24.81 12 53.7 28 -5.7 21.7
19:15 1011 29.85 840 24.81 12 53.6 29 -5.6 21.9
19:20 1011 29.85 840 24.81 11.9 53.4 29 -5.5 22.1
19:25 1011 29.85 840 24.81 11.8 53.3 29 -5.6 21.9
19:30 1011 29.85 840 24.81 11.9 53.4 29 -5.5 22.1
19:35 1011 29.85 840 24.81 11.8 53.3 30 -5.3 22.5
19:40 1011 29.85 840 24.81 11.8 53.2 31 -4.8 23.4
19:45 1011 29.85 840 24.81 11.4 52.5 31 -5.3 22.5
19:50 1011 29.85 840 24.81 11 51.7 32 -5.3 22.5
19:55 1011 29.85 840 24.81 10.8 51.5 31 -5.5 22.1
20:00 1011 29.85 840 24.81 10.7 51.2 31 -5.8 21.5
20:05 1011 29.85 840 24.81 10.6 51.1 31 -5.9 21.5
20:10 1011 29.85 840 24.81 10.6 51 31 -5.9 21.3
20:15 1011 29.85 840 24.81 10.5 51 32 -5.3 22.4
20:20 1011 29.85 840 24.81 10.4 50.6 34 -4.6 23.6
20:25 1011 29.85 840 24.81 10.1 50.2 35 -4.5 23.9
20:30 1011 29.85 840 24.81 10 49.9 37 -4.1 24.7
20:35 1011 29.85 840 24.81 10 49.9 35 -4.6 23.7
20:40 1011 29.85 840 24.81 9.9 49.8 37 -4.1 24.5
20:45 1011 29.85 840 24.81 9.8 49.6 38 -3.9 24.9
20:50 1011 29.85 840 24.81 9.7 49.5 39 -3.4 25.8
20:55 1011 29.85 840 24.81 9.7 49.4 39 -3.5 25.7
21:00 1011 29.85 840 24.81 9.6 49.2 39 -3.5 25.7
21:05 1011 29.85 840 24.81 9.7 49.4 38 -3.9 25
21:10 1011 29.85 840 24.81 9.8 49.7 39 -3.5 25.7
21:15 1011 29.85 840 24.81 9.8 49.6 38 -3.8 25.1
21:20 1011 29.85 840 24.81 9.7 49.5 39 -3.4 25.8
21:25 1011 29.85 840 24.81 9.7 49.5 39 -3.4 25.9
21:30 1011 29.85 840 24.81 9.6 49.3 40 -3.5 25.7
21:35 1011 29.85 840 24.81 9.5 49.1 41 -3.2 26.3
21:40 1011 29.85 840 24.81 9.4 48.9 42 -2.8 26.9
21:45 1011 29.85 840 24.81 9.2 48.5 43 -2.8 27
21:50 1011 29.85 840 24.81 9 48.2 43 -2.8 27
21:55 1011 29.85 840 24.81 9 48.2 43 -2.7 27.1
22:00 1011 29.85 840 24.81 9 48.2 44 -2.6 27.3
22:05 1011 29.85 840 24.81 8.9 48.1 44 -2.5 27.4
22:10 1011 29.85 840 24.81 8.8 47.9 45 -2.4 27.7
22:15 1011 29.85 840 24.81 8.8 47.8 46 -2.2 28
22:20 1011 29.85 840 24.81 8.7 47.6 47 -2.1 28.3
22:25 1011 29.85 840 24.81 8.6 47.5 47 -2 28.4
22:30 1011 29.85 840 24.81 8.6 47.4 47 -2.1 28.2
22:35 1010 29.83 840 24.81 8.6 47.5 47 -2.1 28.3
22:40 1010 29.83 840 24.81 8.5 47.3 48 -1.9 28.5
22:45 1010 29.83 839 24.78 8.6 47.6 48 -1.8 28.7
22:50 1010 29.83 839 24.78 8.6 47.4 49 -1.6 29.1
22:55 1010 29.83 839 24.78 8.3 47 49 -1.7 28.9
23:00 1010 29.83 839 24.78 8.2 46.8 49 -1.7 28.9
23:05 1010 29.83 839 24.78 8.3 47 50 -1.6 29.2
23:10 1010 29.83 839 24.78 8.1 46.5 51 -1.4 29.4
23:15 1010 29.83 839 24.78 7.9 46.3 52 -1.3 29.6
23:20 1010 29.83 839 24.78 7.8 46 53 -1.3 29.7
23:25 1010 29.83 839 24.78 7.7 45.9 53 -1.3 29.7
23:30 1010 29.83 839 24.78 7.7 45.8 54 -1 30.1
23:35 1010 29.83 839 24.78 7.3 45.2 55 -1.1 30
23:40 1010 29.83 839 24.78 7.1 44.7 56 -1.1 30.1
23:45 1010 29.83 839 24.78 6.8 44.3 58 -0.9 30.3
23:50 1009 29.8 839 24.78 6.7 44 57 -1.3 29.7
23:55 1009 29.8 839 24.78 6.6 43.9 57 -1.4 29.5
24:00 1009 29.8 839 24.78 6.5 43.8 57 -1.5 29.4